Latest Weather Observations for Point Fawcett

IDD60801

Issued at 11:11 am CST Tuesday 2 March 2021 (issued every 10 minutes, with the page automatically refreshed every 10 minutes)

About weather observations | Map of weather stations | Latest weather observations for NT | Other Formats
Station Details ID: 200731 Name: POINT FAWCETT Lat: -11.76 Lon: 130.03 Height: 6.5 m
Data from the previous 72 hours. | See also: Recent months at Point Fawcett
Date/Time
CST
Temp
°C
App
Temp
°C
Dew
Point
°C
Rel
Hum
%
Delta-T
°C
Wind Press
QNH
hPa
Press
MSL
hPa
Rain since
9am
mm
Dir  Spd
km/h
Gust
km/h
Spd
kts
Gust
kts
02/11:00am 31.1 35.2 25.7 73 3.8 NW 15 19 8 10 1010.3 1010.2 0.0
02/10:30am 30.8 35.0 25.4 73 3.8 NW 13 17 7 9 1010.3 - 0.0
02/10:00am 30.1 34.7 25.4 76 3.3 NW 11 15 6 8 1010.3 - 0.0
02/09:30am 29.8 34.2 25.1 76 3.3 NW 11 15 6 8 1010.3 - 0.0
02/09:00am 29.6 33.4 25.3 77 3.0 NW 15 19 8 10 1010.1 1010.0 0.0
02/08:30am 28.3 32.5 25.3 84 2.1 NW 13 17 7 9 1009.7 - 0.0
02/08:00am 27.8 31.4 25.0 85 2.0 NW 15 19 8 10 1009.6 - 0.0
02/07:30am 27.5 30.3 24.9 86 1.8 NW 19 24 10 13 1009.0 - 0.0
02/07:00am 27.4 30.8 25.2 88 1.5 NNW 17 20 9 11 1008.8 - 0.0
02/06:30am 27.4 31.5 25.2 88 1.5 NNW 13 17 7 9 1008.6 - 0.0
02/06:00am 27.2 31.2 25.0 88 1.5 NNW 13 17 7 9 1008.4 1008.3 0.0
02/05:30am 26.9 31.6 24.9 89 1.4 NNW 9 13 5 7 1008.0 - 0.0
02/05:00am 26.7 31.6 24.7 89 1.4 N 7 11 4 6 1007.7 - 0.0
02/04:30am 26.5 31.2 24.3 88 1.5 N 7 9 4 5 1007.7 - 0.0
02/04:00am 26.3 30.7 24.5 90 1.2 N 9 13 5 7 1007.6 - 0.0
02/03:30am 25.7 30.6 24.3 92 1.0 N 6 9 3 5 1007.7 - 0.0
02/03:00am 25.1 29.7 24.1 94 0.7 N 7 11 4 6 1008.0 1007.9 0.0
02/02:30am 24.7 30.0 23.7 94 0.7 SW 2 6 1 3 1008.4 - 0.0
02/02:00am 24.8 30.4 23.6 93 0.8 CALM 0 0 0 0 1008.9 - 0.0
02/01:30am 24.9 30.6 23.7 93 0.8 CALM 0 0 0 0 1009.1 - 0.0
02/01:00am 24.9 30.5 23.5 92 1.0 CALM 0 0 0 0 1009.6 - 0.0
02/12:30am 25.1 30.7 23.5 91 1.1 CALM 0 0 0 0 1010.0 - 0.0
02/12:00am 25.5 31.2 23.7 90 1.2 CALM 0 0 0 0 1010.3 1010.2 0.0
 
Date/Time
CST
Temp
°C
App
Temp
°C
Dew
Point
°C
Rel
Hum
%
Delta-T
°C
Wind Press
QNH
hPa
Press
MSL
hPa
Rain since
9am
mm
Dir  Spd
km/h
Gust
km/h
Spd
kts
Gust
kts
01/11:30pm 25.6 30.5 23.6 89 1.4 SE 4 9 2 5 1010.5 - 0.0
01/11:00pm 25.6 30.0 23.5 88 1.4 SSE 6 7 3 4 1010.7 - 0.0
01/10:30pm 25.7 29.9 23.4 87 1.6 SE 7 11 4 6 1010.5 - 0.0
01/10:00pm 25.7 30.2 23.6 88 1.4 SE 6 9 3 5 1010.2 - 0.0
01/09:30pm 25.6 29.4 23.5 88 1.4 SE 9 15 5 8 1010.0 - 0.0
01/09:00pm 25.4 28.8 23.3 88 1.4 SE 11 15 6 8 1009.7 1009.6 0.0
01/08:30pm 25.5 28.8 23.2 87 1.6 ESE 11 20 6 11 1009.4 - 0.0
01/08:00pm 25.7 29.1 23.4 87 1.6 ESE 11 20 6 11 1009.2 - 0.0
01/07:30pm 25.8 28.0 23.3 86 1.7 ESE 17 28 9 15 1009.0 - 0.0
01/07:00pm 26.5 29.4 23.2 82 2.2 ESE 13 22 7 12 1008.9 - 0.0
01/06:30pm 28.5 34.5 24.9 81 2.5 N 2 9 1 5 1008.5 - 0.0
01/06:00pm 28.9 35.4 25.1 80 2.7 CALM 0 0 0 0 1008.3 1008.2 0.0
01/05:30pm 28.8 33.6 24.4 77 3.1 NW 7 9 4 5 1008.0 - 0.0
01/05:00pm 28.9 33.3 25.1 80 2.7 WNW 11 15 6 8 1008.1 - 0.0
01/04:30pm 28.7 33.6 24.7 79 2.8 WNW 7 9 4 5 1007.8 - 0.0
01/04:00pm 28.9 32.9 25.1 80 2.7 W 13 19 7 10 1007.9 - 0.0
01/03:30pm 29.3 31.8 25.3 79 2.8 WNW 22 26 12 14 1007.6 - 0.0
01/03:00pm 30.8 34.2 25.8 74 3.6 NW 19 22 10 12 1007.7 1007.6 0.0
01/02:30pm 32.0 36.2 26.5 72 4.0 NW 17 20 9 11 1008.2 - 0.0
01/02:00pm 31.5 35.8 26.1 73 3.9 NW 15 19 8 10 1008.6 - 0.0
01/01:30pm 31.7 36.7 26.0 72 4.1 NW 11 15 6 8 1008.9 - 0.0
01/01:00pm 31.6 36.5 26.4 74 3.7 NW 13 17 7 9 1009.4 - 0.0
01/12:30pm 31.4 36.2 25.7 71 4.1 NW 11 13 6 7 1009.5 - 0.0
01/12:00pm 31.0 35.4 25.1 71 4.2 NW 11 13 6 7 1009.7 1009.6 0.0
01/11:30am 31.0 36.1 25.6 73 3.8 NNW 9 13 5 7 1010.1 - 0.0
01/11:00am 30.7 35.8 25.5 74 3.7 NNW 9 13 5 7 1010.3 - 0.0
01/10:30am 30.1 34.8 24.9 73 3.6 NW 9 13 5 7 1010.2 - 0.0
01/10:00am 29.6 34.5 25.3 77 3.0 NNW 9 11 5 6 1010.2 - 0.0
01/09:30am 29.4 34.4 25.4 79 2.8 NW 9 13 5 7 1009.9 - 0.0
01/09:00am 28.7 33.8 25.5 83 2.3 NW 9 11 5 6 1009.6 1009.5 0.4
01/08:30am 27.7 33.3 25.7 89 1.4 NNW 7 11 4 6 1009.2 - 0.4
01/08:00am 26.9 33.8 25.7 93 0.8 CALM 0 7 0 4 1008.7 - 0.4
01/07:30am 25.8 31.9 24.4 92 1.0 CALM 0 0 0 0 1008.5 - 0.4
01/07:00am 26.0 31.8 24.0 89 1.4 CALM 0 0 0 0 1008.2 - 0.4
01/06:30am 26.9 31.5 24.2 85 1.9 W 7 11 4 6 1008.0 - 0.4
01/06:00am 27.0 31.4 24.5 86 1.7 NW 9 13 5 7 1007.9 1007.8 0.4
01/05:30am 26.8 31.4 24.8 89 1.4 NW 9 13 5 7 1007.6 - 0.4
01/05:00am 26.2 30.4 24.8 92 1.0 NW 11 15 6 8 1007.4 - 0.4
01/04:30am 25.4 30.2 24.5 95 0.6 NW 7 9 4 5 1007.4 - 0.4
01/04:00am 25.3 31.4 24.4 95 0.6 CALM 0 0 0 0 1007.4 - 0.4
01/03:30am 25.4 30.7 24.4 94 0.7 NNW 4 7 2 4 1007.8 - 0.4
01/03:00am 25.3 29.9 24.8 97 0.3 NNW 9 11 5 6 1008.2 1008.1 0.4
01/02:30am 24.7 30.7 24.2 97 0.3 CALM 0 0 0 0 1008.3 - 0.2
01/02:00am 24.5 30.3 24.0 97 0.3 CALM 0 0 0 0 1008.5 - 0.2
01/01:30am 24.5 30.3 24.0 97 0.3 CALM 0 0 0 0 1008.6 - 0.2
01/01:00am 24.4 30.0 23.5 95 0.6 CALM 0 0 0 0 1008.9 - 0.2
01/12:30am 24.2 29.6 23.3 95 0.6 CALM 0 0 0 0 1009.0 - 0.2
01/12:00am 24.1 29.5 23.2 95 0.6 CALM 0 0 0 0 1009.2 1009.1 0.2
 
Date/Time
CST
Temp
°C
App
Temp
°C
Dew
Point
°C
Rel
Hum
%
Delta-T
°C
Wind Press
QNH
hPa
Press
MSL
hPa
Rain since
9am
mm
Dir  Spd
km/h
Gust
km/h
Spd
kts
Gust
kts
28/11:30pm 24.0 28.9 23.1 95 0.6 SSE 2 6 1 3 1009.2 - 0.2
28/11:00pm 24.1 29.1 23.2 95 0.6 SSE 2 6 1 3 1009.2 - 0.2
28/10:30pm 24.1 28.3 23.1 94 0.7 SSE 6 7 3 4 1008.9 - 0.2
28/10:00pm 24.1 28.1 23.1 94 0.7 S 7 9 4 5 1008.6 - 0.2
28/09:30pm 24.2 29.2 23.2 94 0.7 S 2 6 1 3 1008.4 - 0.2
28/09:00pm 24.4 29.4 23.2 93 0.8 S 2 7 1 4 1007.9 1007.8 0.2
28/08:30pm 24.6 30.1 23.4 93 0.8 CALM 0 0 0 0 1007.9 - 0.2
28/08:00pm 24.7 29.4 23.3 92 1.0 S 4 7 2 4 1007.4 - 0.2
28/07:30pm 25.1 30.3 23.5 91 1.1 WNW 2 7 1 4 1007.0 - 0.2
28/07:00pm 25.0 29.6 23.1 89 1.3 N 4 7 2 4 1006.8 - 0.2
28/06:30pm 25.1 29.7 23.2 89 1.3 E 4 7 2 4 1006.8 - 0.2
28/06:00pm 25.1 30.0 23.0 88 1.4 E 2 11 1 6 1006.9 1006.8 0.2
28/05:30pm 25.2 26.2 22.9 87 1.6 N 22 30 12 16 1007.1 - 0.2
28/05:00pm 23.0 23.6 19.4 80 2.3 SE 15 24 8 13 1007.0 - 0.0
28/04:30pm 27.2 28.6 21.0 69 4.1 E 15 28 8 15 1006.9 - 0.0
28/04:00pm 30.8 34.2 25.2 72 4.0 WNW 17 20 9 11 1006.2 - 0.0
28/03:30pm 31.4 34.7 26.0 73 3.9 WNW 20 26 11 14 1006.1 - 0.0
28/03:00pm 30.9 35.0 26.4 77 3.2 W 17 20 9 11 1006.5 1006.4 0.0
28/02:30pm 30.5 34.6 25.8 76 3.3 WNW 15 19 8 10 1006.8 - 0.0
28/02:00pm 30.8 35.6 26.3 77 3.2 WNW 13 15 7 8 1007.2 - 0.0
28/01:30pm 31.1 35.5 25.7 73 3.8 W 13 17 7 9 1007.5 - 0.0
28/01:00pm 30.7 35.6 25.8 75 3.5 W 11 15 6 8 1007.9 - 0.0
28/12:30pm 30.8 35.9 26.1 76 3.4 W 11 15 6 8 1008.2 - 0.0
28/12:00pm 30.2 34.9 25.5 76 3.3 W 11 15 6 8 1008.5 1008.4 0.0
28/11:30am 30.9 36.0 26.2 76 3.4 WNW 11 13 6 7 1008.9 - 0.0
28/11:00am 30.3 36.1 26.0 78 3.1 WNW 7 11 4 6 1009.0 - 0.0
28/10:30am 30.2 35.6 25.5 76 3.3 WNW 7 9 4 5 1009.2 - 0.0
28/10:00am 30.3 35.8 26.2 79 2.9 NW 9 11 5 6 1009.2 - 0.0
28/09:30am 29.6 36.8 26.2 82 2.4 CALM 0 0 0 0 1009.0 - 0.0
28/09:00am 28.9 36.1 26.1 85 2.0 CALM 0 0 0 0 1008.7 1008.6 0.0
28/08:30am 27.8 34.9 26.0 90 1.3 CALM 0 0 0 0 1008.4 - 0.0
28/08:00am 27.2 34.4 26.1 94 0.8 CALM 0 0 0 0 1008.1 - 0.0
28/07:30am 26.0 32.5 25.0 94 0.7 CALM 0 0 0 0 1007.6 - 0.0
28/07:00am 25.9 32.2 24.7 93 0.8 CALM 0 0 0 0 1007.4 - 0.0
28/06:30am 25.9 31.9 24.3 91 1.1 CALM 0 0 0 0 1007.0 - 0.0
28/06:00am 26.6 32.4 24.6 89 1.4 W 2 7 1 4 1006.9 1006.8 0.0
28/05:30am 27.4 32.5 25.0 87 1.7 W 7 11 4 6 1006.6 - 0.0
28/05:00am 27.6 32.1 25.2 87 1.7 W 11 13 6 7 1006.3 - 0.0
28/04:30am 27.5 32.3 25.1 87 1.7 W 9 13 5 7 1006.2 - 0.0
28/04:00am 27.5 32.4 25.3 88 1.5 W 9 13 5 7 1006.1 - 0.0
28/03:30am 27.4 32.3 25.2 88 1.5 W 9 13 5 7 1006.0 - 0.0
28/03:00am 27.5 32.4 25.9 91 1.1 NW 11 15 6 8 1006.3 1006.2 0.0
28/02:30am 26.9 32.2 25.9 94 0.7 NW 9 13 5 7 1006.7 - 0.0
28/02:00am 26.5 31.6 25.6 95 0.6 NW 9 11 5 6 1006.7 - 0.0
28/01:30am 26.0 31.3 25.3 96 0.5 NW 7 11 4 6 1007.0 - 0.0
28/01:00am 25.2 31.2 24.2 94 0.7 CALM 0 0 0 0 1007.1 - 0.0
28/12:30am 25.2 31.2 24.2 94 0.7 CALM 0 0 0 0 1007.1 - 0.0
28/12:00am 25.4 31.5 24.4 94 0.7 CALM 0 0 0 0 1007.5 1007.4 0.0
 
Date/Time
CST
Temp
°C
App
Temp
°C
Dew
Point
°C
Rel
Hum
%
Delta-T
°C
Wind Press
QNH
hPa
Press
MSL
hPa
Rain since
9am
mm
Dir  Spd
km/h
Gust
km/h
Spd
kts
Gust
kts
27/11:30pm 25.8 31.8 24.8 94 0.7 NE 2 7 1 4 1007.7 - 0.0
27/11:00pm 25.7 31.6 24.7 94 0.7 ENE 2 7 1 4 1007.5 - 0.0
27/10:30pm 26.0 32.5 25.0 94 0.7 CALM 0 0 0 0 1007.3 - 0.0
27/10:00pm 25.5 31.5 24.3 93 0.8 CALM 0 0 0 0 1007.2 - 0.0
27/09:30pm 25.5 31.4 24.1 92 1.0 CALM 0 0 0 0 1006.6 - 0.0
27/09:00pm 25.7 31.6 24.1 91 1.1 CALM 0 4 0 2 1006.2 1006.1 0.0
27/08:30pm 26.0 32.0 24.2 90 1.2 CALM 0 6 0 3 1005.7 - 0.0
27/08:00pm 26.4 32.4 24.2 88 1.5 CALM 0 0 0 0 1005.5 - 0.0
27/07:30pm 27.0 33.0 24.3 85 1.9 CALM 0 0 0 0 1005.1 - 0.0
27/07:00pm 27.5 33.2 23.7 80 2.6 CALM 0 0 0 0 1004.8 - 0.0
27/06:30pm 28.2 33.7 24.0 78 2.9 E 2 6 1 3 1004.6 - 0.0
27/06:00pm 29.0 33.7 23.9 74 3.5 N 6 13 3 7 1004.5 1004.4 0.0
27/05:30pm 30.3 34.9 24.7 72 3.9 SSW 9 15 5 8 1004.4 - 0.0
27/05:00pm 30.5 34.5 24.4 70 4.3 SSW 11 20 6 11 1004.2 - 0.0
27/04:30pm 30.9 34.6 24.5 68 4.5 SW 13 19 7 10 1004.1 - 0.0
27/04:00pm 30.6 34.7 25.2 73 3.8 SW 13 19 7 10 1004.3 - 0.0
27/03:30pm 31.1 34.8 25.2 71 4.2 SW 15 20 8 11 1004.5 - 0.0
27/03:00pm 31.1 35.1 25.0 70 4.3 WSW 13 20 7 11 1004.9 1004.8 0.0
27/02:30pm 30.8 34.9 25.2 72 4.0 SW 13 19 7 10 1005.1 - 0.0
27/02:00pm 30.7 34.4 24.6 70 4.3 WSW 13 19 7 10 1005.5 - 0.0
27/01:30pm 31.1 34.2 24.2 66 4.8 SW 15 20 8 11 1005.9 - 0.0
27/01:00pm 30.7 34.7 24.4 69 4.4 SW 11 17 6 9 1006.2 - 0.0
27/12:30pm 30.6 34.0 23.3 65 5.0 SSW 11 17 6 9 1006.5 - 0.0
27/12:00pm 31.1 34.9 24.0 66 4.9 SSW 11 19 6 10 1006.6 1006.5 0.0
27/11:30am 31.0 34.8 23.4 64 5.2 SSW 9 20 5 11 1006.7 - 0.0

Other formats

Comma delimited format used in spreadsheet applications
http://www.bom.gov.au/fwo/IDD60801/IDD60801.94122.axf

JavaScript Object Notation format (JSON) in row-major order
http://www.bom.gov.au/fwo/IDD60801/IDD60801.94122.json

Data quality

Most of these data are generated automatically and are frequently updated. Quality checks on data are not normally performed. It is possible for incorrect values to appear. Refer to information at About Latest Weather Observations and please check the disclaimer before using these data.